Terminal Aerodrome Forecast
Issued by NWS

Home | Current Version | Previous Version | Text Only | Print | Product List | Glossary On
Versions: 1 2 3 4 5 6 7 8 9 10 11 12 13 14
000
FTUS43 KLSX 241200 AAA
TAFCPS
TAF AMD
KCPS 241258Z 2413/2512 VRB04KT P6SM BKN015
     FM241500 24005KT P6SM FEW015 SCT030
     FM250000 VRB03KT P6SM SCT250=

USA.gov is the U.S. government's official web portal to all federal, state and local government web resources and services.